sensor_id;sensor_type;location;lat;lon;timestamp;pressure;altitude;pressure_sealevel;temperature;humidity
7170;BME280;3626;42.656;23.312;2022-12-11T00:00:07;92553.69;;;8.77;100.00
7170;BME280;3626;42.656;23.312;2022-12-11T00:00:13;92551.91;;;8.77;100.00
7170;BME280;3626;42.656;23.312;2022-12-11T00:00:20;92553.69;;;8.77;100.00
7170;BME280;3626;42.656;23.312;2022-12-11T00:00:25;92557.06;;;8.77;100.00
7170;BME280;3626;42.656;23.312;2022-12-11T00:00:31;92551.13;;;8.77;100.00
7170;BME280;3626;42.656;23.312;2022-12-11T00:00:37;92558.06;;;8.76;100.00
7170;BME280;3626;42.656;23.312;2022-12-11T00:00:43;92553.69;;;8.77;100.00
7170;BME280;3626;42.656;23.312;2022-12-11T00:00:49;92560.41;;;8.78;100.00
7170;BME280;3626;42.656;23.312;2022-12-11T00:00:55;92551.91;;;8.77;100.00
7170;BME280;3626;42.656;23.312;2022-12-11T00:01:08;92556.84;;;8.79;100.00
7170;BME280;3626;42.656;23.312;2022-12-11T00:01:15;92556.66;;;8.81;100.00
7170;BME280;3626;42.656;23.312;2022-12-11T00:01:22;92559.00;;;8.82;100.00
7170;BME280;3626;42.656;23.312;2022-12-11T00:01:29;92561.59;;;8.82;100.00
7170;BME280;3626;42.656;23.312;2022-12-11T00:01:34;92558.81;;;8.84;100.00
7170;BME280;3626;42.656;23.312;2022-12-11T00:01:41;92557.03;;;8.84;100.00
7170;BME280;3626;42.656;23.312;2022-12-11T00:01:47;92560.19;;;8.86;100.00
7170;BME280;3626;42.656;23.312;2022-12-11T00:01:52;92560.19;;;8.86;100.00
7170;BME280;3626;42.656;23.312;2022-12-11T00:01:58;92566.91;;;8.87;100.00
7170;BME280;3626;42.656;23.312;2022-12-11T00:02:04;92564.31;;;8.87;100.00
7170;BME280;3626;42.656;23.312;2022-12-11T00:02:10;92572.84;;;8.88;100.00
7170;BME280;3626;42.656;23.312;2022-12-11T00:02:15;92568.50;;;8.88;100.00
7170;BME280;3626;42.656;23.312;2022-12-11T00:02:21;92575.44;;;8.88;100.00
7170;BME280;3626;42.656;23.312;2022-12-11T00:02:27;92566.91;;;8.87;100.00
7170;BME280;3626;42.656;23.312;2022-12-11T00:02:34;92571.25;;;8.87;100.00
7170;BME280;3626;42.656;23.312;2022-12-11T00:02:39;92568.50;;;8.88;100.00
7170;BME280;3626;42.656;23.312;2022-12-11T00:02:45;92565.91;;;8.88;100.00
7170;BME280;3626;42.656;23.312;2022-12-11T00:02:52;92568.50;;;8.88;100.00
7170;BME280;3626;42.656;23.312;2022-12-11T00:02:58;92571.06;;;8.88;100.00
7170;BME280;3626;42.656;23.312;2022-12-11T00:03:03;92563.34;;;8.88;100.00
7170;BME280;3626;42.656;23.312;2022-12-11T00:03:09;92565.91;;;8.88;100.00
7170;BME280;3626;42.656;23.312;2022-12-11T00:03:15;92567.72;;;8.88;100.00
7170;BME280;3626;42.656;23.312;2022-12-11T00:03:21;92568.50;;;8.88;100.00
7170;BME280;3626;42.656;23.312;2022-12-11T00:03:26;92564.13;;;8.89;100.00
7170;BME280;3626;42.656;23.312;2022-12-11T00:03:32;92565.91;;;8.88;100.00
7170;BME280;3626;42.656;23.312;2022-12-11T00:03:38;92559.19;;;8.87;100.00
7170;BME280;3626;42.656;23.312;2022-12-11T00:03:44;92564.31;;;8.87;100.00
7170;BME280;3626;42.656;23.312;2022-12-11T00:03:50;92565.31;;;8.86;100.00
7170;BME280;3626;42.656;23.312;2022-12-11T00:03:56;92561.75;;;8.87;100.00
7170;BME280;3626;42.656;23.312;2022-12-11T00:04:01;92562.56;;;8.88;100.00
7170;BME280;3626;42.656;23.312;2022-12-11T00:04:08;92565.13;;;8.88;100.00
7170;BME280;3626;42.656;23.312;2022-12-11T00:04:14;92559.19;;;8.87;100.00
7170;BME280;3626;42.656;23.312;2022-12-11T00:04:20;92560.97;;;8.87;100.00
7170;BME280;3626;42.656;23.312;2022-12-11T00:04:26;92563.53;;;8.87;100.00
7170;BME280;3626;42.656;23.312;2022-12-11T00:04:32;92568.91;;;8.85;100.00
7170;BME280;3626;42.656;23.312;2022-12-11T00:04:37;92567.31;;;8.84;100.00
7170;BME280;3626;42.656;23.312;2022-12-11T00:04:43;92568.28;;;8.83;100.00
7170;BME280;3626;42.656;23.312;2022-12-11T00:04:49;92561.81;;;8.81;100.00
7170;BME280;3626;42.656;23.312;2022-12-11T00:04:55;92564.56;;;8.79;100.00
7170;BME280;3626;42.656;23.312;2022-12-11T00:05:00;92563.00;;;8.78;100.00
7170;BME280;3626;42.656;23.312;2022-12-11T00:05:07;92562.19;;;8.77;100.00
7170;BME280;3626;42.656;23.312;2022-12-11T00:05:14;92566.56;;;8.77;100.00
7170;BME280;3626;42.656;23.312;2022-12-11T00:05:19;92561.41;;;8.77;100.00
7170;BME280;3626;42.656;23.312;2022-12-11T00:05:25;92561.41;;;8.77;100.00
7170;BME280;3626;42.656;23.312;2022-12-11T00:05:31;92565.78;;;8.76;100.00
7170;BME280;3626;42.656;23.312;2022-12-11T00:05:38;92556.28;;;8.77;100.00
7170;BME280;3626;42.656;23.312;2022-12-11T00:05:44;92556.28;;;8.77;100.00
7170;BME280;3626;42.656;23.312;2022-12-11T00:05:50;92563.00;;;8.78;100.00
7170;BME280;3626;42.656;23.312;2022-12-11T00:05:56;92555.50;;;8.76;100.00
7170;BME280;3626;42.656;23.312;2022-12-11T00:06:04;92564.00;;;8.77;100.00
7170;BME280;3626;42.656;23.312;2022-12-11T00:06:11;92564.00;;;8.77;100.00
7170;BME280;3626;42.656;23.312;2022-12-11T00:06:20;92562.41;;;8.76;100.00
7170;BME280;3626;42.656;23.312;2022-12-11T00:06:26;92556.50;;;8.75;100.00
7170;BME280;3626;42.656;23.312;2022-12-11T00:06:32;92561.63;;;8.75;100.00
7170;BME280;3626;42.656;23.312;2022-12-11T00:06:38;92561.63;;;8.75;100.00
7170;BME280;3626;42.656;23.312;2022-12-11T00:06:43;92564.22;;;8.75;100.00
7170;BME280;3626;42.656;23.312;2022-12-11T00:06:49;92570.31;;;8.74;100.00
7170;BME280;3626;42.656;23.312;2022-12-11T00:06:55;92564.22;;;8.75;100.00
7170;BME280;3626;42.656;23.312;2022-12-11T00:07:01;92567.56;;;8.76;100.00
7170;BME280;3626;42.656;23.312;2022-12-11T00:07:07;92568.34;;;8.76;100.00
7170;BME280;3626;42.656;23.312;2022-12-11T00:07:13;92568.34;;;8.76;100.00
7170;BME280;3626;42.656;23.312;2022-12-11T00:07:18;92572.50;;;8.77;100.00
7170;BME280;3626;42.656;23.312;2022-12-11T00:07:24;92576.06;;;8.76;100.00
7170;BME280;3626;42.656;23.312;2022-12-11T00:07:30;92572.50;;;8.77;100.00
7170;BME280;3626;42.656;23.312;2022-12-11T00:07:36;92569.91;;;8.77;100.00
7170;BME280;3626;42.656;23.312;2022-12-11T00:07:41;92578.84;;;8.75;100.00
7170;BME280;3626;42.656;23.312;2022-12-11T00:07:47;92579.81;;;8.74;100.00
7170;BME280;3626;42.656;23.312;2022-12-11T00:07:53;92570.53;;;8.73;100.00
7170;BME280;3626;42.656;23.312;2022-12-11T00:07:59;92573.72;;;8.75;100.00
7170;BME280;3626;42.656;23.312;2022-12-11T00:08:06;92574.50;;;8.75;100.00
7170;BME280;3626;42.656;23.312;2022-12-11T00:08:12;92577.84;;;8.76;100.00
7170;BME280;3626;42.656;23.312;2022-12-11T00:08:18;92567.56;;;8.76;100.00
7170;BME280;3626;42.656;23.312;2022-12-11T00:08:23;92577.63;;;8.77;100.00
7170;BME280;3626;42.656;23.312;2022-12-11T00:08:29;92572.50;;;8.77;100.00
7170;BME280;3626;42.656;23.312;2022-12-11T00:08:35;92573.28;;;8.78;100.00
7170;BME280;3626;42.656;23.312;2022-12-11T00:08:41;92570.69;;;8.78;100.00
7170;BME280;3626;42.656;23.312;2022-12-11T00:08:50;92572.28;;;8.79;100.00
7170;BME280;3626;42.656;23.312;2022-12-11T00:08:56;92571.31;;;8.80;100.00
7170;BME280;3626;42.656;23.312;2022-12-11T00:09:01;92572.88;;;8.81;100.00
7170;BME280;3626;42.656;23.312;2022-12-11T00:09:08;92563.38;;;8.82;100.00
7170;BME280;3626;42.656;23.312;2022-12-11T00:09:15;92558.81;;;8.84;100.00
7170;BME280;3626;42.656;23.312;2022-12-11T00:09:21;92565.72;;;8.83;100.00
7170;BME280;3626;42.656;23.312;2022-12-11T00:09:27;92562.19;;;8.84;100.00
7170;BME280;3626;42.656;23.312;2022-12-11T00:09:33;92564.75;;;8.84;100.00
7170;BME280;3626;42.656;23.312;2022-12-11T00:09:39;92562.19;;;8.84;100.00
7170;BME280;3626;42.656;23.312;2022-12-11T00:09:45;92562.97;;;8.85;100.00
7170;BME280;3626;42.656;23.312;2022-12-11T00:09:50;92552.31;;;8.81;100.00
7170;BME280;3626;42.656;23.312;2022-12-11T00:09:56;92554.88;;;8.81;100.00
7170;BME280;3626;42.656;23.312;2022-12-11T00:10:02;92550.13;;;8.78;100.00
7170;BME280;3626;42.656;23.312;2022-12-11T00:10:08;92556.84;;;8.79;100.00
7170;BME280;3626;42.656;23.312;2022-12-11T00:10:14;92547.56;;;8.78;100.00
7170;BME280;3626;42.656;23.312;2022-12-11T00:10:20;92549.34;;;8.77;100.00
7170;BME280;3626;42.656;23.312;2022-12-11T00:10:25;92550.91;;;8.79;100.00
7170;BME280;3626;42.656;23.312;2022-12-11T00:10:34;92554.88;;;8.81;100.00
7170;BME280;3626;42.656;23.312;2022-12-11T00:10:46;92548.72;;;8.82;100.00
7170;BME280;3626;42.656;23.312;2022-12-11T00:10:52;92552.31;;;8.81;100.00
7170;BME280;3626;42.656;23.312;2022-12-11T00:10:58;92551.50;;;8.81;100.00
7170;BME280;3626;42.656;23.312;2022-12-11T00:11:04;92553.47;;;8.79;100.00
7170;BME280;3626;42.656;23.312;2022-12-11T00:11:13;92556.28;;;8.77;100.00
7170;BME280;3626;42.656;23.312;2022-12-11T00:11:19;92557.84;;;8.78;100.00
7170;BME280;3626;42.656;23.312;2022-12-11T00:11:26;92557.06;;;8.77;100.00
7170;BME280;3626;42.656;23.312;2022-12-11T00:11:32;92566.00;;;8.75;100.00
7170;BME280;3626;42.656;23.312;2022-12-11T00:11:37;92564.22;;;8.75;100.00
7170;BME280;3626;42.656;23.312;2022-12-11T00:11:43;92567.97;;;8.73;100.00
7170;BME280;3626;42.656;23.312;2022-12-11T00:11:49;92566.19;;;8.73;100.00
7170;BME280;3626;42.656;23.312;2022-12-11T00:11:55;92573.72;;;8.75;100.00
7170;BME280;3626;42.656;23.312;2022-12-11T00:12:02;92570.13;;;8.76;100.00
7170;BME280;3626;42.656;23.312;2022-12-11T00:12:09;92579.63;;;8.75;100.00
7170;BME280;3626;42.656;23.312;2022-12-11T00:12:15;92577.84;;;8.76;100.00
7170;BME280;3626;42.656;23.312;2022-12-11T00:12:20;92582.00;;;8.77;100.00
7170;BME280;3626;42.656;23.312;2022-12-11T00:12:28;92576.84;;;8.77;100.00
7170;BME280;3626;42.656;23.312;2022-12-11T00:12:34;92581.78;;;8.79;100.00
7170;BME280;3626;42.656;23.312;2022-12-11T00:12:40;92575.84;;;8.78;100.00
7170;BME280;3626;42.656;23.312;2022-12-11T00:12:45;92578.22;;;8.80;100.00
7170;BME280;3626;42.656;23.312;2022-12-11T00:12:51;92576.63;;;8.79;100.00
7170;BME280;3626;42.656;23.312;2022-12-11T00:12:57;92582.56;;;8.79;100.00
7170;BME280;3626;42.656;23.312;2022-12-11T00:13:02;92583.56;;;8.78;100.00
7170;BME280;3626;42.656;23.312;2022-12-11T00:13:08;92576.63;;;8.79;100.00
7170;BME280;3626;42.656;23.312;2022-12-11T00:13:14;92577.41;;;8.79;100.00
7170;BME280;3626;42.656;23.312;2022-12-11T00:13:20;92584.94;;;8.81;100.00
7170;BME280;3626;42.656;23.312;2022-12-11T00:13:26;92579.03;;;8.80;100.00
7170;BME280;3626;42.656;23.312;2022-12-11T00:13:32;92575.44;;;8.81;100.00
7170;BME280;3626;42.656;23.312;2022-12-11T00:13:38;92577.00;;;8.82;100.00
7170;BME280;3626;42.656;23.312;2022-12-11T00:13:43;92575.22;;;8.83;100.00
7170;BME280;3626;42.656;23.312;2022-12-11T00:13:49;92576.00;;;8.83;100.00
7170;BME280;3626;42.656;23.312;2022-12-11T00:13:55;92576.00;;;8.83;100.00
7170;BME280;3626;42.656;23.312;2022-12-11T00:14:01;92577.63;;;8.84;100.00
7170;BME280;3626;42.656;23.312;2022-12-11T00:14:07;92576.63;;;8.85;100.00
7170;BME280;3626;42.656;23.312;2022-12-11T00:14:13;92569.69;;;8.86;100.00
7170;BME280;3626;42.656;23.312;2022-12-11T00:14:19;92575.63;;;8.86;100.00
7170;BME280;3626;42.656;23.312;2022-12-11T00:14:25;92566.09;;;8.87;100.00
7170;BME280;3626;42.656;23.312;2022-12-11T00:14:30;92560.78;;;8.88;100.00
7170;BME280;3626;42.656;23.312;2022-12-11T00:14:37;92558.22;;;8.88;100.00
7170;BME280;3626;42.656;23.312;2022-12-11T00:14:43;92553.84;;;8.89;100.00
7170;BME280;3626;42.656;23.312;2022-12-11T00:14:48;92546.91;;;8.89;100.00
7170;BME280;3626;42.656;23.312;2022-12-11T00:14:56;92550.50;;;8.88;100.00
7170;BME280;3626;42.656;23.312;2022-12-11T00:15:01;92547.91;;;8.88;100.00
7170;BME280;3626;42.656;23.312;2022-12-11T00:15:08;92547.31;;;8.86;100.00
7170;BME280;3626;42.656;23.312;2022-12-11T00:15:13;92540.81;;;8.84;100.00
7170;BME280;3626;42.656;23.312;2022-12-11T00:15:19;92536.88;;;8.81;100.00
7170;BME280;3626;42.656;23.312;2022-12-11T00:15:25;92530.16;;;8.80;100.00
7170;BME280;3626;42.656;23.312;2022-12-11T00:15:31;92533.69;;;8.79;100.00
7170;BME280;3626;42.656;23.312;2022-12-11T00:15:37;92526.97;;;8.78;100.00
7170;BME280;3626;42.656;23.312;2022-12-11T00:15:42;92529.38;;;8.80;100.00
7170;BME280;3626;42.656;23.312;2022-12-11T00:15:48;92523.41;;;8.79;100.00
7170;BME280;3626;42.656;23.312;2022-12-11T00:15:54;92525.00;;;8.80;100.00
7170;BME280;3626;42.656;23.312;2022-12-11T00:16:00;92526.56;;;8.81;100.00
7170;BME280;3626;42.656;23.312;2022-12-11T00:16:06;92523.22;;;8.81;100.00
7170;BME280;3626;42.656;23.312;2022-12-11T00:16:13;92524.41;;;8.78;100.00
7170;BME280;3626;42.656;23.312;2022-12-11T00:16:19;92526.97;;;8.78;100.00
7170;BME280;3626;42.656;23.312;2022-12-11T00:16:25;92522.84;;;8.77;100.00
7170;BME280;3626;42.656;23.312;2022-12-11T00:16:31;92523.84;;;8.76;100.00
7170;BME280;3626;42.656;23.312;2022-12-11T00:16:36;92529.16;;;8.74;100.00
7170;BME280;3626;42.656;23.312;2022-12-11T00:16:43;92530.78;;;8.75;100.00
7170;BME280;3626;42.656;23.312;2022-12-11T00:16:48;92530.97;;;8.74;100.00
7170;BME280;3626;42.656;23.312;2022-12-11T00:16:54;92531.41;;;8.71;100.00
7170;BME280;3626;42.656;23.312;2022-12-11T00:17:00;92537.72;;;8.68;100.00
7170;BME280;3626;42.656;23.312;2022-12-11T00:17:05;92537.72;;;8.68;100.00
7170;BME280;3626;42.656;23.312;2022-12-11T00:17:11;92537.94;;;8.67;100.00
7170;BME280;3626;42.656;23.312;2022-12-11T00:17:17;92542.09;;;8.68;100.00
7170;BME280;3626;42.656;23.312;2022-12-11T00:17:24;92545.66;;;8.67;100.00
7170;BME280;3626;42.656;23.312;2022-12-11T00:17:29;92544.84;;;8.66;100.00
7170;BME280;3626;42.656;23.312;2022-12-11T00:17:35;92552.56;;;8.66;100.00
7170;BME280;3626;42.656;23.312;2022-12-11T00:17:41;92556.13;;;8.65;100.00
7170;BME280;3626;42.656;23.312;2022-12-11T00:17:47;92564.06;;;8.64;100.00
7170;BME280;3626;42.656;23.312;2022-12-11T00:17:52;92569.97;;;8.64;100.00
7170;BME280;3626;42.656;23.312;2022-12-11T00:17:58;92567.41;;;8.64;100.00
7170;BME280;3626;42.656;23.312;2022-12-11T00:18:04;92572.56;;;8.64;100.00
7170;BME280;3626;42.656;23.312;2022-12-11T00:18:11;92579.28;;;8.65;100.00
7170;BME280;3626;42.656;23.312;2022-12-11T00:18:16;92580.06;;;8.66;100.00
7170;BME280;3626;42.656;23.312;2022-12-11T00:18:22;92578.09;;;8.68;100.00
7170;BME280;3626;42.656;23.312;2022-12-11T00:18:28;92577.09;;;8.69;100.00
7170;BME280;3626;42.656;23.312;2022-12-11T00:18:34;92577.09;;;8.69;100.00
7170;BME280;3626;42.656;23.312;2022-12-11T00:18:40;92583.00;;;8.69;100.00
7170;BME280;3626;42.656;23.312;2022-12-11T00:18:46;92580.66;;;8.68;100.00
7170;BME280;3626;42.656;23.312;2022-12-11T00:18:53;92581.44;;;8.68;100.00
7170;BME280;3626;42.656;23.312;2022-12-11T00:18:58;92583.63;;;8.65;100.00
7170;BME280;3626;42.656;23.312;2022-12-11T00:19:04;92580.06;;;8.66;100.00
7170;BME280;3626;42.656;23.312;2022-12-11T00:19:10;92578.47;;;8.65;100.00
7170;BME280;3626;42.656;23.312;2022-12-11T00:19:16;92574.53;;;8.62;100.00
7170;BME280;3626;42.656;23.312;2022-12-11T00:19:22;92573.16;;;8.60;100.00
7170;BME280;3626;42.656;23.312;2022-12-11T00:19:28;92571.38;;;8.60;100.00
7170;BME280;3626;42.656;23.312;2022-12-11T00:19:33;92567.81;;;8.61;100.00
7170;BME280;3626;42.656;23.312;2022-12-11T00:19:39;92563.28;;;8.63;100.00
7170;BME280;3626;42.656;23.312;2022-12-11T00:19:45;92566.63;;;8.64;100.00
7170;BME280;3626;42.656;23.312;2022-12-11T00:19:50;92556.91;;;8.66;100.00
7170;BME280;3626;42.656;23.312;2022-12-11T00:19:56;92557.50;;;8.68;100.00
7170;BME280;3626;42.656;23.312;2022-12-11T00:20:03;92549.56;;;8.69;100.00
7170;BME280;3626;42.656;23.312;2022-12-11T00:20:10;92550.38;;;8.70;100.00
7170;BME280;3626;42.656;23.312;2022-12-11T00:20:16;92537.94;;;8.67;100.00
7170;BME280;3626;42.656;23.312;2022-12-11T00:20:23;92541.28;;;8.67;100.00
7170;BME280;3626;42.656;23.312;2022-12-11T00:20:29;92541.28;;;8.67;100.00
7170;BME280;3626;42.656;23.312;2022-12-11T00:20:36;92533.38;;;8.69;100.00
7170;BME280;3626;42.656;23.312;2022-12-11T00:20:42;92533.38;;;8.69;100.00
7170;BME280;3626;42.656;23.312;2022-12-11T00:20:48;92529.78;;;8.70;100.00
7170;BME280;3626;42.656;23.312;2022-12-11T00:20:53;92539.28;;;8.69;100.00
7170;BME280;3626;42.656;23.312;2022-12-11T00:20:59;92539.28;;;8.69;100.00
7170;BME280;3626;42.656;23.312;2022-12-11T00:21:11;92537.72;;;8.68;100.00
7170;BME280;3626;42.656;23.312;2022-12-11T00:21:17;92545.44;;;8.68;100.00
7170;BME280;3626;42.656;23.312;2022-12-11T00:21:22;92546.63;;;8.66;100.00
7170;BME280;3626;42.656;23.312;2022-12-11T00:21:28;92539.69;;;8.66;100.00
7170;BME280;3626;42.656;23.312;2022-12-11T00:21:34;92545.66;;;8.67;100.00
7170;BME280;3626;42.656;23.312;2022-12-11T00:21:40;92546.44;;;8.67;100.00
7170;BME280;3626;42.656;23.312;2022-12-11T00:21:46;92559.88;;;8.69;100.00
7170;BME280;3626;42.656;23.312;2022-12-11T00:21:51;92558.09;;;8.70;100.00
7170;BME280;3626;42.656;23.312;2022-12-11T00:21:58;92563.22;;;8.70;100.00
7170;BME280;3626;42.656;23.312;2022-12-11T00:22:04;92557.91;;;8.71;100.00
7170;BME280;3626;42.656;23.312;2022-12-11T00:22:09;92563.81;;;8.72;100.00
7170;BME280;3626;42.656;23.312;2022-12-11T00:22:15;92565.78;;;8.70;100.00
7170;BME280;3626;42.656;23.312;2022-12-11T00:22:21;92568.59;;;8.68;100.00
7170;BME280;3626;42.656;23.312;2022-12-11T00:22:28;92567.59;;;8.69;100.00
7170;BME280;3626;42.656;23.312;2022-12-11T00:22:34;92571.94;;;8.69;100.00
7170;BME280;3626;42.656;23.312;2022-12-11T00:22:40;92569.38;;;8.69;100.00
7170;BME280;3626;42.656;23.312;2022-12-11T00:22:45;92569.38;;;8.69;100.00
7170;BME280;3626;42.656;23.312;2022-12-11T00:22:51;92571.94;;;8.69;100.00
7170;BME280;3626;42.656;23.312;2022-12-11T00:22:57;92572.94;;;8.68;100.00
7170;BME280;3626;42.656;23.312;2022-12-11T00:23:03;92573.13;;;8.66;100.00
7170;BME280;3626;42.656;23.312;2022-12-11T00:23:09;92574.91;;;8.66;100.00
7170;BME280;3626;42.656;23.312;2022-12-11T00:23:15;92575.34;;;8.63;100.00
7170;BME280;3626;42.656;23.312;2022-12-11T00:23:21;92575.91;;;8.65;100.00
7170;BME280;3626;42.656;23.312;2022-12-11T00:23:27;92571.56;;;8.65;100.00
7170;BME280;3626;42.656;23.312;2022-12-11T00:23:34;92570.56;;;8.66;100.00
7170;BME280;3626;42.656;23.312;2022-12-11T00:23:41;92572.16;;;8.67;100.00
7170;BME280;3626;42.656;23.312;2022-12-11T00:23:47;92567.78;;;8.68;100.00
7170;BME280;3626;42.656;23.312;2022-12-11T00:23:53;92572.94;;;8.68;100.00
7170;BME280;3626;42.656;23.312;2022-12-11T00:23:59;92578.09;;;8.68;100.00
7170;BME280;3626;42.656;23.312;2022-12-11T00:24:05;92575.50;;;8.68;100.00
7170;BME280;3626;42.656;23.312;2022-12-11T00:24:11;92570.56;;;8.66;100.00
7170;BME280;3626;42.656;23.312;2022-12-11T00:24:17;92564.25;;;8.62;100.00
7170;BME280;3626;42.656;23.312;2022-12-11T00:24:22;92561.47;;;8.64;100.00
7170;BME280;3626;42.656;23.312;2022-12-11T00:24:28;92562.47;;;8.63;100.00
7170;BME280;3626;42.656;23.312;2022-12-11T00:24:34;92568.41;;;8.63;100.00
7170;BME280;3626;42.656;23.312;2022-12-11T00:24:39;92558.13;;;8.63;100.00
7170;BME280;3626;42.656;23.312;2022-12-11T00:24:45;92551.19;;;8.64;100.00
7170;BME280;3626;42.656;23.312;2022-12-11T00:24:51;92556.91;;;8.66;100.00
7170;BME280;3626;42.656;23.312;2022-12-11T00:24:58;92545.66;;;8.67;100.00
7170;BME280;3626;42.656;23.312;2022-12-11T00:25:04;92547.22;;;8.68;100.00
7170;BME280;3626;42.656;23.312;2022-12-11T00:25:10;92539.50;;;8.68;100.00
7170;BME280;3626;42.656;23.312;2022-12-11T00:25:16;92542.09;;;8.68;100.00
7170;BME280;3626;42.656;23.312;2022-12-11T00:25:21;92542.09;;;8.68;100.00
7170;BME280;3626;42.656;23.312;2022-12-11T00:25:27;92537.13;;;8.66;100.00
7170;BME280;3626;42.656;23.312;2022-12-11T00:25:33;92525.47;;;8.64;100.00
7170;BME280;3626;42.656;23.312;2022-12-11T00:25:40;92531.03;;;8.61;100.00
7170;BME280;3626;42.656;23.312;2022-12-11T00:25:47;92530.66;;;8.57;100.00
7170;BME280;3626;42.656;23.312;2022-12-11T00:25:52;92527.50;;;8.55;100.00
7170;BME280;3626;42.656;23.312;2022-12-11T00:25:58;92526.72;;;8.55;100.00
7170;BME280;3626;42.656;23.312;2022-12-11T00:26:04;92524.16;;;8.55;100.00
7170;BME280;3626;42.656;23.312;2022-12-11T00:26:12;92529.28;;;8.55;100.00
7170;BME280;3626;42.656;23.312;2022-12-11T00:26:18;92537.00;;;8.55;100.00
7170;BME280;3626;42.656;23.312;2022-12-11T00:26:25;92526.91;;;8.53;100.00
7170;BME280;3626;42.656;23.312;2022-12-11T00:26:31;92527.91;;;8.52;100.00
7170;BME280;3626;42.656;23.312;2022-12-11T00:26:38;92529.91;;;8.50;100.00
7170;BME280;3626;42.656;23.312;2022-12-11T00:26:43;92527.34;;;8.50;100.00
7170;BME280;3626;42.656;23.312;2022-12-11T00:26:49;92530.69;;;8.50;100.00
7170;BME280;3626;42.656;23.312;2022-12-11T00:26:55;92535.84;;;8.50;100.00
7170;BME280;3626;42.656;23.312;2022-12-11T00:27:01;92535.84;;;8.50;100.00
7170;BME280;3626;42.656;23.312;2022-12-11T00:27:06;92539.19;;;8.51;100.00
7170;BME280;3626;42.656;23.312;2022-12-11T00:27:12;92539.75;;;8.53;100.00
7170;BME280;3626;42.656;23.312;2022-12-11T00:27:18;92542.94;;;8.55;100.00
7170;BME280;3626;42.656;23.312;2022-12-11T00:27:24;92544.28;;;8.58;100.00
7170;BME280;3626;42.656;23.312;2022-12-11T00:27:29;92544.88;;;8.60;100.00
7170;BME280;3626;42.656;23.312;2022-12-11T00:27:35;92538.75;;;8.61;100.00
7170;BME280;3626;42.656;23.312;2022-12-11T00:27:41;92556.34;;;8.64;100.00
7170;BME280;3626;42.656;23.312;2022-12-11T00:27:47;92547.84;;;8.63;100.00
7170;BME280;3626;42.656;23.312;2022-12-11T00:27:52;92555.56;;;8.63;100.00
7170;BME280;3626;42.656;23.312;2022-12-11T00:27:59;92557.13;;;8.64;100.00
7170;BME280;3626;42.656;23.312;2022-12-11T00:28:05;92555.34;;;8.65;100.00
7170;BME280;3626;42.656;23.312;2022-12-11T00:28:11;92560.25;;;8.66;100.00
7170;BME280;3626;42.656;23.312;2022-12-11T00:28:17;92563.66;;;8.67;100.00
7170;BME280;3626;42.656;23.312;2022-12-11T00:28:23;92562.66;;;8.68;100.00
7170;BME280;3626;42.656;23.312;2022-12-11T00:28:28;92560.09;;;8.68;100.00
7170;BME280;3626;42.656;23.312;2022-12-11T00:28:34;92566.59;;;8.70;100.00
7170;BME280;3626;42.656;23.312;2022-12-11T00:28:40;92570.75;;;8.71;100.00
7170;BME280;3626;42.656;23.312;2022-12-11T00:28:46;92571.53;;;8.72;100.00
7170;BME280;3626;42.656;23.312;2022-12-11T00:28:54;92569.75;;;8.72;100.00
7170;BME280;3626;42.656;23.312;2022-12-11T00:29:00;92567.41;;;8.71;100.00
7170;BME280;3626;42.656;23.312;2022-12-11T00:29:06;92571.72;;;8.70;100.00
7170;BME280;3626;42.656;23.312;2022-12-11T00:29:13;92569.97;;;8.71;100.00
7170;BME280;3626;42.656;23.312;2022-12-11T00:29:19;92571.53;;;8.72;100.00
7170;BME280;3626;42.656;23.312;2022-12-11T00:29:25;92568.97;;;8.72;100.00
7170;BME280;3626;42.656;23.312;2022-12-11T00:29:30;92569.16;;;8.70;100.00
7170;BME280;3626;42.656;23.312;2022-12-11T00:29:36;92568.38;;;8.70;100.00
7170;BME280;3626;42.656;23.312;2022-12-11T00:29:42;92567.59;;;8.69;100.00
7170;BME280;3626;42.656;23.312;2022-12-11T00:29:48;92562.25;;;8.71;100.00
7170;BME280;3626;42.656;23.312;2022-12-11T00:29:56;92562.25;;;8.71;100.00
7170;BME280;3626;42.656;23.312;2022-12-11T00:30:02;92567.19;;;8.72;100.00
7170;BME280;3626;42.656;23.312;2022-12-11T00:30:08;92569.16;;;8.70;100.00
7170;BME280;3626;42.656;23.312;2022-12-11T00:30:14;92561.25;;;8.72;100.00
7170;BME280;3626;42.656;23.312;2022-12-11T00:30:20;92560.25;;;8.73;100.00
7170;BME280;3626;42.656;23.312;2022-12-11T00:30:26;92557.47;;;8.74;100.00
7170;BME280;3626;42.656;23.312;2022-12-11T00:30:32;92559.06;;;8.75;100.00
7170;BME280;3626;42.656;23.312;2022-12-11T00:30:38;92558.06;;;8.76;100.00
7170;BME280;3626;42.656;23.312;2022-12-11T00:30:45;92556.28;;;8.77;100.00
7170;BME280;3626;42.656;23.312;2022-12-11T00:30:50;92555.28;;;8.78;100.00
7170;BME280;3626;42.656;23.312;2022-12-11T00:30:56;92554.28;;;8.79;100.00
7170;BME280;3626;42.656;23.312;2022-12-11T00:31:03;92554.09;;;8.81;100.00
7170;BME280;3626;42.656;23.312;2022-12-11T00:31:12;92559.41;;;8.79;100.00
7170;BME280;3626;42.656;23.312;2022-12-11T00:31:20;92555.88;;;8.80;100.00
7170;BME280;3626;42.656;23.312;2022-12-11T00:31:26;92555.09;;;8.80;100.00
7170;BME280;3626;42.656;23.312;2022-12-11T00:31:31;92553.31;;;8.80;100.00
7170;BME280;3626;42.656;23.312;2022-12-11T00:31:37;92554.88;;;8.81;100.00
7170;BME280;3626;42.656;23.312;2022-12-11T00:31:43;92550.72;;;8.80;100.00
7170;BME280;3626;42.656;23.312;2022-12-11T00:31:48;92560.00;;;8.81;100.00
7170;BME280;3626;42.656;23.312;2022-12-11T00:31:54;92555.66;;;8.82;100.00
7170;BME280;3626;42.656;23.312;2022-12-11T00:32:00;92553.88;;;8.82;100.00
7170;BME280;3626;42.656;23.312;2022-12-11T00:32:06;92553.88;;;8.82;100.00
7170;BME280;3626;42.656;23.312;2022-12-11T00:32:11;92552.88;;;8.83;100.00
7170;BME280;3626;42.656;23.312;2022-12-11T00:32:17;92554.47;;;8.84;100.00
7170;BME280;3626;42.656;23.312;2022-12-11T00:32:23;92555.25;;;8.85;100.00
7170;BME280;3626;42.656;23.312;2022-12-11T00:32:28;92555.44;;;8.83;100.00
7170;BME280;3626;42.656;23.312;2022-12-11T00:32:36;92545.97;;;8.84;100.00
7170;BME280;3626;42.656;23.312;2022-12-11T00:32:41;92549.31;;;8.84;100.00
7170;BME280;3626;42.656;23.312;2022-12-11T00:32:50;92548.31;;;8.85;100.00